Time;durP1;ratioP1;P1;durP2;ratioP2;P2;SDS_P1;SDS_P2;PMS_P1;PMS_P2;Temp;Humidity;BMP_temperature;BMP_pressure;BME280_temperature;BME280_humidity;BME280_pressure;Samples;Min_cycle;Max_cycle;Signal;HPM_P1;HPM_P2
2022/04/21 00:02:41;;;;;;;11.33;6.53;;;;;;;3.82;100.00;100185.34;31375557;28;20513;-69
2022/04/21 00:17:43;;;;;;;10.80;6.10;;;;;;;4.04;100.00;100182.47;31383339;28;20049;-70
2022/04/21 00:32:46;;;;;;;11.10;6.13;;;;;;;4.00;100.00;100172.84;31363116;28;20423;-70
2022/04/21 00:47:49;;;;;;;11.03;6.20;;;;;;;3.82;100.00;100179.97;31351313;28;20064;-69
2022/04/21 01:02:54;;;;;;;7.67;5.23;;;;;;;3.81;100.00;100162.31;31357816;28;20056;-69
2022/04/21 01:17:56;;;;;;;9.53;5.77;;;;;;;3.88;100.00;100170.44;31372094;28;20052;-70
2022/04/21 01:32:58;;;;;;;11.77;6.13;;;;;;;3.91;100.00;100167.03;31350583;28;20044;-69
2022/04/21 01:48:00;;;;;;;11.60;6.63;;;;;;;3.95;100.00;100183.94;31357105;28;20065;-68
2022/04/21 02:03:02;;;;;;;14.37;6.97;;;;;;;3.78;100.00;100194.13;31360940;28;20052;-71
2022/04/21 02:18:04;;;;;;;8.70;5.63;;;;;;;3.78;100.00;100182.63;31354365;28;20392;-69
2022/04/21 02:33:06;;;;;;;9.60;5.83;;;;;;;3.77;100.00;100197.22;31363716;28;20044;-71
2022/04/21 02:48:09;;;;;;;10.27;6.13;;;;;;;3.85;100.00;100189.97;31339051;28;20501;-70
2022/04/21 03:03:11;;;;;;;12.33;6.57;;;;;;;3.97;100.00;100185.13;31363542;28;20398;-69
2022/04/21 03:18:13;;;;;;;10.20;6.43;;;;;;;4.16;100.00;100184.09;31381238;28;20128;-70
2022/04/21 03:33:15;;;;;;;8.87;5.80;;;;;;;4.36;100.00;100190.78;31387119;28;20056;-69
2022/04/21 03:48:17;;;;;;;11.80;5.80;;;;;;;4.54;100.00;100193.56;31379747;28;20049;-70
2022/04/21 04:03:18;;;;;;;10.83;5.90;;;;;;;5.04;100.00;100183.06;31377048;28;20045;-70
2022/04/21 04:18:22;;;;;;;11.70;6.13;;;;;;;5.33;100.00;100184.72;31365683;28;20532;-69
2022/04/21 04:33:23;;;;;;;8.60;5.93;;;;;;;5.82;100.00;100194.03;31362232;28;20057;-70
2022/04/21 04:48:26;;;;;;;12.40;6.33;;;;;;;5.96;100.00;100198.69;31372878;28;20045;-68
2022/04/21 05:03:27;;;;;;;9.97;6.27;;;;;;;5.77;100.00;100214.03;31361695;28;20052;-70
2022/04/21 05:18:30;;;;;;;12.53;6.87;;;;;;;5.83;100.00;100226.00;31360215;28;20053;-70
2022/04/21 05:33:35;;;;;;;10.13;6.27;;;;;;;6.31;100.00;100225.66;31381674;28;20041;-69
2022/04/21 05:48:37;;;;;;;6.07;4.03;;;;;;;6.89;100.00;100237.91;31343268;28;20147;-71
2022/04/21 06:03:39;;;;;;;14.37;6.40;;;;;;;6.91;100.00;100221.31;31382967;28;20063;-72
2022/04/21 06:18:41;;;;;;;10.47;6.40;;;;;;;7.70;100.00;100231.38;31363533;28;20057;-70
2022/04/21 06:33:43;;;;;;;9.97;5.23;;;;;;;9.22;100.00;100223.06;31375454;28;20044;-70
2022/04/21 06:48:45;;;;;;;6.63;5.03;;;;;;;9.55;99.90;100229.63;31347095;28;20064;-70
2022/04/21 07:03:47;;;;;;;7.50;4.37;;;;;;;10.18;98.04;100268.59;31351266;28;20053;-74
2022/04/21 07:18:49;;;;;;;8.37;5.00;;;;;;;9.56;100.00;100244.72;31374647;28;20056;-67
2022/04/21 07:33:51;;;;;;;6.00;4.80;;;;;;;9.20;97.65;100245.19;31395662;28;20140;-69
2022/04/21 08:04:27;;;;;;;9.70;4.40;;;;;;;9.38;92.03;100236.06;31321100;28;20783;-69
2022/04/21 08:19:29;;;;;;;3.73;3.17;;;;;;;9.79;88.66;100228.50;31357309;28;20049;-72
2022/04/21 08:34:32;;;;;;;8.83;4.90;;;;;;;9.84;83.89;100230.00;31382748;28;20948;-72
2022/04/21 08:49:36;;;;;;;6.37;4.77;;;;;;;10.24;83.15;100212.72;31360685;28;20445;-70
2022/04/21 09:04:38;;;;;;;4.13;3.50;;;;;;;10.85;75.41;100198.09;31357440;28;20057;-71
2022/04/21 09:19:55;;;;;;;7.23;4.47;;;;;;;10.64;80.55;100203.91;31380898;28;20048;-68
2022/04/21 09:34:57;;;;;;;6.07;4.37;;;;;;;10.34;81.00;100202.88;31336488;28;20052;-69
2022/04/21 09:50:12;;;;;;;23.33;15.23;;;;;;;10.18;68.12;100189.16;31361417;28;20059;-69
2022/04/21 10:05:21;;;;;;;2.97;2.20;;;;;;;10.24;61.87;100182.88;31364702;28;20065;-70
2022/04/21 10:20:29;;;;;;;9.33;2.37;;;;;;;10.63;60.05;100202.41;31382537;28;20056;-72
2022/04/21 10:35:33;;;;;;;5.67;2.90;;;;;;;10.85;68.22;100208.97;31369263;28;20469;-71
2022/04/21 10:50:36;;;;;;;5.73;3.17;;;;;;;10.82;69.28;100212.50;31356035;28;20064;-70
2022/04/21 11:05:39;;;;;;;3.50;2.37;;;;;;;11.04;72.36;100210.91;31374603;28;20062;-70
2022/04/21 11:20:43;;;;;;;4.73;2.57;;;;;;;10.69;74.34;100222.44;31374075;28;20462;-71
2022/04/21 11:35:47;;;;;;;3.17;2.07;;;;;;;10.58;74.09;100228.06;31426859;28;20061;-72
2022/04/21 11:50:50;;;;;;;4.57;2.60;;;;;;;10.55;77.72;100229.66;31370413;28;20076;-78
2022/04/21 12:21:14;;;;;;;3.47;2.00;;;;;;;11.20;77.69;100208.25;31348861;28;20064;-76
2022/04/21 12:36:25;;;;;;;2.93;1.90;;;;;;;11.09;74.42;100224.00;31364061;28;20144;-78
2022/04/21 12:51:28;;;;;;;2.60;1.73;;;;;;;11.08;75.68;100227.91;31380872;28;20052;-77
2022/04/21 13:06:30;;;;;;;2.10;1.70;;;;;;;11.00;73.29;100226.50;31375598;28;20036;-70
2022/04/21 13:36:53;;;;;;;5.10;1.67;;;;;;;10.62;75.06;100247.00;31355948;28;20059;-72
2022/04/21 13:51:54;;;;;;;4.03;2.27;;;;;;;9.82;79.69;100254.81;31351367;28;20049;-76
2022/04/21 14:06:57;;;;;;;3.13;1.70;;;;;;;9.82;82.15;100264.88;31390490;28;20520;-75
2022/04/21 14:21:59;;;;;;;1.37;1.10;;;;;;;9.58;82.80;100277.59;31344990;28;20059;-70
2022/04/21 14:37:01;;;;;;;6.23;3.83;;;;;;;8.87;85.81;100284.59;31360787;28;20049;-70
2022/04/21 14:52:08;;;;;;;2.73;1.80;;;;;;;8.67;88.56;100297.16;31347738;28;20056;-70
2022/04/21 15:07:10;;;;;;;2.80;2.17;;;;;;;8.58;90.26;100301.47;31352087;28;20057;-71
2022/04/21 15:22:15;;;;;;;4.13;1.97;;;;;;;8.47;92.49;100305.06;31346607;28;20063;-70
2022/04/21 15:37:17;;;;;;;2.50;2.00;;;;;;;8.40;95.59;100329.44;31338561;28;20041;-74
2022/04/21 15:52:19;;;;;;;2.30;1.50;;;;;;;8.47;96.40;100345.63;31404304;28;20080;-71
2022/04/21 16:07:21;;;;;;;2.50;1.90;;;;;;;8.29;98.05;100346.88;31373778;28;20062;-69
2022/04/21 16:22:25;;;;;;;3.87;2.53;;;;;;;8.23;97.87;100354.66;31350023;28;20090;-69
2022/04/21 16:37:27;;;;;;;5.63;2.50;;;;;;;8.05;98.20;100372.91;31363674;28;20070;-70
2022/04/21 16:52:29;;;;;;;9.10;2.97;;;;;;;7.94;98.42;100391.13;31355306;28;20041;-74
2022/04/21 17:07:31;;;;;;;3.97;2.60;;;;;;;7.81;98.50;100404.28;31353225;28;20712;-73
2022/04/21 17:22:34;;;;;;;3.73;2.40;;;;;;;7.71;99.12;100399.69;31352376;28;20087;-72
2022/04/21 17:37:35;;;;;;;5.60;2.90;;;;;;;7.66;99.86;100425.19;31324435;28;20049;-70
2022/04/21 17:52:38;;;;;;;4.60;3.00;;;;;;;7.62;100.00;100440.63;31344774;28;20056;-71
2022/04/21 18:07:50;;;;;;;29.53;15.10;;;;;;;7.57;100.00;100437.53;31345771;28;20048;-71
2022/04/21 18:22:54;;;;;;;6.50;3.10;;;;;;;7.41;100.00;100446.06;31313237;28;20049;-71
2022/04/21 18:37:56;;;;;;;4.20;2.77;;;;;;;7.39;100.00;100456.50;31305402;28;20060;-73
2022/04/21 18:52:58;;;;;;;3.83;2.40;;;;;;;7.32;100.00;100470.03;31334724;28;20056;-72
2022/04/21 19:08:01;;;;;;;7.53;3.50;;;;;;;7.24;100.00;100463.06;31344562;28;20501;-72
2022/04/21 19:23:03;;;;;;;6.20;3.40;;;;;;;7.14;100.00;100468.06;31343470;28;20378;-72
2022/04/21 19:38:05;;;;;;;4.00;2.80;;;;;;;7.15;100.00;100466.91;31337510;28;20052;-71
2022/04/21 19:53:07;;;;;;;5.87;3.27;;;;;;;7.06;100.00;100474.66;31347883;28;20056;-71
2022/04/21 20:23:29;;;;;;;7.97;3.17;;;;;;;6.87;100.00;100466.91;31361858;28;20056;-71
2022/04/21 20:38:31;;;;;;;2.80;1.97;;;;;;;6.84;100.00;100468.47;31379632;28;20056;-71
2022/04/21 20:53:33;;;;;;;83.40;38.10;;;;;;;6.80;100.00;100464.22;31361925;28;20048;-71
2022/04/21 21:08:35;;;;;;;4.03;3.00;;;;;;;6.72;100.00;100470.72;31378262;28;20052;-72
2022/04/21 21:23:36;;;;;;;4.50;2.53;;;;;;;6.71;100.00;100469.19;31364268;28;20049;-71
2022/04/21 21:38:41;;;;;;;5.93;3.23;;;;;;;6.71;100.00;100463.78;31350789;28;20061;-70
2022/04/21 21:53:44;;;;;;;6.60;2.83;;;;;;;6.61;100.00;100459.16;31369701;28;20055;-71
2022/04/21 22:08:46;;;;;;;5.10;3.23;;;;;;;6.47;100.00;100460.66;31353688;28;20053;-71
2022/04/21 22:23:47;;;;;;;5.70;3.57;;;;;;;6.35;100.00;100482.59;31373806;28;20053;-72
2022/04/21 22:38:49;;;;;;;6.73;3.77;;;;;;;6.12;100.00;100479.41;31386355;28;20159;-71
2022/04/21 22:53:51;;;;;;;12.33;5.13;;;;;;;6.00;100.00;100479.75;31370196;28;20049;-71
2022/04/21 23:24:13;;;;;;;8.33;4.87;;;;;;;5.96;100.00;100512.06;31366896;28;20071;-71
2022/04/21 23:39:15;;;;;;;11.37;5.63;;;;;;;5.99;100.00;100499.75;31390131;28;20057;-71
2022/04/21 23:54:19;;;;;;;10.77;5.90;;;;;;;5.95;100.00;100499.72;31372783;28;20496;-71
